Terminal Aerodrome Forecast
Issued by NWS Atlanta, GA

Home | Current Version | Previous Version | Text Only | Print | Product List | Glossary On
Versions: 1 2 3 4 5 6 7 8 9 10 11 12 13 14 15 16 17 18 19 20 21 22
000
FTUS42 KFFC 030520
TAFMCN
TAF
KMCN 030520Z 0306/0406 VRB03KT P6SM VCTS SCT060CB BKN100
      TEMPO 0306/0307 6SM -SHRA BKN060
     FM030900 VRB03KT 3SM BR SCT005
     FM031400 08005KT P6SM SCT020 SCT250
     FM031800 09006KT P6SM BKN050 PROB30 0318/0324 VRB15G25KT 5SM
      TSRA BKN045CB
     FM040000 09004KT P6SM SCT050 SCT100=

USA.gov is the U.S. government's official web portal to all federal, state and local government web resources and services.